Time;durP1;ratioP1;P1;durP2;ratioP2;P2;SDS_P1;SDS_P2;PMS_P1;PMS_P2;Temp;Humidity;BMP_temperature;BMP_pressure;BME280_temperature;BME280_humidity;BME280_pressure;Samples;Min_cycle;Max_cycle;Signal;HPM_P1;HPM_P2
2023/05/02 00:03:16;;;;;;;2.75;2.53;;;;;;;20.53;52.96;101508.97;19885764;29;20054;-65
2023/05/02 00:13:18;;;;;;;3.47;2.92;;;;;;;20.50;52.88;101514.66;19883931;29;20134;-66
2023/05/02 00:23:20;;;;;;;2.50;2.30;;;;;;;20.48;53.07;101525.59;19886229;29;20738;-66
2023/05/02 00:33:21;;;;;;;2.33;1.92;;;;;;;20.46;53.13;101534.88;19881929;29;20137;-66
2023/05/02 00:43:23;;;;;;;2.58;1.98;;;;;;;20.43;53.38;101553.09;19883231;29;20553;-66
2023/05/02 00:53:25;;;;;;;2.30;1.52;;;;;;;20.41;53.40;101552.38;19884421;29;20054;-65
2023/05/02 01:03:36;;;;;;;1.73;1.52;;;;;;;20.40;53.43;101555.19;19881386;29;20138;-66
2023/05/02 01:13:39;;;;;;;1.55;1.20;;;;;;;20.34;53.32;101551.22;19881100;29;20051;-65
2023/05/02 01:24:04;;;;;;;1.42;1.17;;;;;;;20.36;53.37;101576.25;19881097;29;20059;-66
2023/05/02 01:34:11;;;;;;;1.10;1.00;;;;;;;20.34;53.13;101575.53;19877671;29;20527;-66
2023/05/02 01:44:15;;;;;;;2.33;1.33;;;;;;;20.32;53.09;101574.78;19878756;29;20062;-66
2023/05/02 01:54:19;;;;;;;1.67;1.20;;;;;;;20.28;52.93;101586.88;19881548;29;20138;-65
2023/05/02 02:04:22;;;;;;;1.42;1.10;;;;;;;20.33;52.81;101597.31;19887022;29;20089;-66
2023/05/02 02:14:25;;;;;;;1.23;1.13;;;;;;;20.36;52.75;101624.06;19893799;29;20092;-66
2023/05/02 02:24:28;;;;;;;1.75;1.17;;;;;;;20.36;52.54;101634.88;19906619;29;20051;-66
2023/05/02 02:34:30;;;;;;;1.08;0.85;;;;;;;20.35;52.54;101633.19;19881950;29;20457;-66
2023/05/02 02:44:31;;;;;;;1.63;0.95;;;;;;;20.35;52.64;101671.03;19889151;29;20059;-66
2023/05/02 02:54:50;;;;;;;1.55;0.98;;;;;;;20.25;52.26;101687.19;19892005;29;20082;-66
2023/05/02 03:04:52;;;;;;;1.10;0.90;;;;;;;20.31;52.13;101705.59;19891847;29;20093;-66
2023/05/02 03:15:19;;;;;;;2.65;1.30;;;;;;;20.29;51.72;101737.31;19874499;29;20046;-65
2023/05/02 03:25:21;;;;;;;1.73;0.80;;;;;;;20.25;51.61;101746.66;19902053;29;20059;-65
2023/05/02 03:35:24;;;;;;;1.70;1.02;;;;;;;20.20;51.36;101765.13;19899376;29;20500;-65
2023/05/02 03:45:26;;;;;;;1.73;0.98;;;;;;;20.11;51.16;101785.72;19887384;29;20058;-66
2023/05/02 03:55:29;;;;;;;2.42;1.13;;;;;;;20.11;50.75;101805.47;19882065;29;20112;-66
2023/05/02 04:05:31;;;;;;;2.60;1.13;;;;;;;20.07;50.43;101819.38;19888484;29;20062;-66
2023/05/02 04:15:33;;;;;;;3.42;1.00;;;;;;;20.04;50.15;101836.72;19885541;29;20062;-65
2023/05/02 04:25:35;;;;;;;2.85;1.00;;;;;;;20.00;49.68;101851.47;19873097;29;20580;-66
2023/05/02 04:35:41;;;;;;;3.67;1.08;;;;;;;19.99;49.32;101874.09;19886803;29;20059;-65
2023/05/02 04:45:46;;;;;;;2.42;1.30;;;;;;;19.95;48.95;101886.16;19884324;29;20512;-66
2023/05/02 04:55:55;;;;;;;2.17;1.38;;;;;;;19.93;48.67;101902.47;19884864;29;20047;-66
2023/05/02 05:05:57;;;;;;;1.33;0.90;;;;;;;19.90;48.39;101918.06;19883125;29;20054;-66
2023/05/02 05:16:00;;;;;;;3.22;1.13;;;;;;;19.90;48.04;101934.28;19884503;29;20138;-66
2023/05/02 05:26:14;;;;;;;2.58;1.02;;;;;;;19.86;47.70;101945.31;19899983;29;20133;-66
2023/05/02 05:36:19;;;;;;;1.48;0.95;;;;;;;19.85;47.12;101970.59;19890267;29;20046;-66
2023/05/02 05:46:24;;;;;;;2.20;1.00;;;;;;;19.85;46.69;101973.31;19903429;29;20590;-65
2023/05/02 05:56:26;;;;;;;3.17;0.80;;;;;;;19.87;46.20;101997.53;19900283;29;20059;-66
2023/05/02 06:06:35;;;;;;;1.02;0.80;;;;;;;19.80;45.74;102002.53;19891974;29;20066;-65
2023/05/02 06:16:37;;;;;;;1.63;0.82;;;;;;;19.84;45.22;102020.22;19892108;29;20385;-66
2023/05/02 06:26:39;;;;;;;2.35;1.35;;;;;;;19.81;45.26;102036.69;19872231;29;20055;-67
2023/05/02 06:36:41;;;;;;;2.47;1.10;;;;;;;19.78;45.53;102047.75;19871907;29;20594;-66
2023/05/02 06:46:42;;;;;;;1.80;1.02;;;;;;;19.84;45.85;102068.88;19868904;29;20569;-67
2023/05/02 06:56:44;;;;;;;3.00;1.10;;;;;;;19.91;45.95;102095.47;19858156;29;20055;-67
2023/05/02 07:06:46;;;;;;;2.95;1.20;;;;;;;19.94;45.98;102093.38;19857249;29;20524;-68
2023/05/02 07:16:48;;;;;;;2.45;1.15;;;;;;;20.02;45.88;102113.53;19855406;29;20458;-67
2023/05/02 07:26:50;;;;;;;3.55;1.10;;;;;;;20.07;46.17;102127.53;19876603;29;20508;-68
2023/05/02 07:36:51;;;;;;;1.90;0.90;;;;;;;20.12;45.80;102138.88;19885128;29;20121;-67
2023/05/02 07:46:54;;;;;;;2.42;1.10;;;;;;;20.17;45.74;102154.72;19874484;29;20062;-68
2023/05/02 07:56:57;;;;;;;3.40;1.10;;;;;;;20.24;45.71;102170.34;19883177;29;20062;-68
2023/05/02 08:06:59;;;;;;;2.35;1.15;;;;;;;20.33;45.58;102168.75;19865603;29;20181;-69
2023/05/02 08:17:01;;;;;;;1.88;1.10;;;;;;;20.39;45.62;102176.38;19878778;29;20119;-69
2023/05/02 08:27:03;;;;;;;3.92;1.27;;;;;;;20.65;45.60;102178.00;19874051;29;20124;-67
2023/05/02 08:37:08;;;;;;;3.78;1.55;;;;;;;20.94;45.04;102199.13;19864587;29;20050;-67
2023/05/02 08:47:13;;;;;;;7.93;3.30;;;;;;;20.88;45.75;102207.75;19879054;29;20137;-67
2023/05/02 08:57:15;;;;;;;3.72;1.95;;;;;;;20.83;46.42;102216.28;19883327;29;20138;-70
2023/05/02 09:07:17;;;;;;;5.45;2.33;;;;;;;20.84;46.64;102228.81;19868787;29;21250;-68
2023/05/02 09:17:20;;;;;;;6.38;2.58;;;;;;;20.83;48.15;102237.91;19857140;29;20579;-69
2023/05/02 09:27:22;;;;;;;4.88;2.65;;;;;;;20.89;50.06;102250.09;19886572;29;20059;-68
2023/05/02 09:37:34;;;;;;;5.18;2.20;;;;;;;20.92;51.29;102250.72;19883149;29;20167;-68
2023/05/02 09:47:36;;;;;;;5.32;2.42;;;;;;;20.89;50.48;102261.78;19859839;29;20069;-67
2023/05/02 09:57:39;;;;;;;3.50;1.95;;;;;;;20.78;49.57;102278.00;19892374;29;20051;-67
2023/05/02 10:07:42;;;;;;;5.05;2.08;;;;;;;20.81;48.81;102277.78;19866595;29;20059;-67
2023/05/02 10:17:47;;;;;;;4.00;2.13;;;;;;;20.83;47.72;102286.66;19860450;29;20055;-67
2023/05/02 10:27:49;;;;;;;4.55;1.90;;;;;;;20.91;47.04;102289.59;19886266;29;20055;-67
2023/05/02 10:37:52;;;;;;;2.90;1.55;;;;;;;20.98;46.26;102296.22;19867799;29;20526;-67
2023/05/02 10:48:19;;;;;;;3.03;1.50;;;;;;;21.00;45.89;102298.84;19875140;29;20134;-68
2023/05/02 10:58:21;;;;;;;1.67;1.15;;;;;;;21.08;45.83;102295.50;19881385;29;20108;-67
2023/05/02 11:08:23;;;;;;;3.05;1.55;;;;;;;21.09;45.67;102297.22;19870918;29;20055;-67
2023/05/02 11:18:25;;;;;;;1.85;0.98;;;;;;;21.12;45.24;102296.97;19891695;29;20071;-67
2023/05/02 11:28:35;;;;;;;3.08;1.45;;;;;;;21.14;45.13;102306.69;19883431;29;20062;-67
2023/05/02 11:38:38;;;;;;;0.98;0.80;;;;;;;21.07;44.97;102315.44;19882273;29;20059;-67
2023/05/02 11:48:40;;;;;;;1.63;1.02;;;;;;;21.11;44.91;102333.16;19883500;29;20103;-67
2023/05/02 11:58:43;;;;;;;2.05;0.90;;;;;;;21.12;44.73;102345.69;19866409;29;20127;-67
2023/05/02 12:08:44;;;;;;;0.70;0.60;;;;;;;21.09;44.52;102357.66;19877780;29;20046;-67
2023/05/02 12:18:47;;;;;;;0.75;0.50;;;;;;;21.04;44.35;102359.00;19862581;29;20531;-67
2023/05/02 12:28:55;;;;;;;1.40;0.70;;;;;;;21.07;44.37;102369.56;19883043;29;20146;-68
2023/05/02 12:38:58;;;;;;;0.63;0.60;;;;;;;21.05;44.32;102385.97;19875250;29;20075;-67
2023/05/02 12:49:08;;;;;;;1.00;0.77;;;;;;;21.04;44.61;102388.78;19883674;29;20523;-67
2023/05/02 12:59:28;;;;;;;0.90;0.70;;;;;;;21.08;44.33;102396.56;19883412;29;20092;-67
2023/05/02 13:09:30;;;;;;;1.38;0.90;;;;;;;21.10;44.10;102407.25;19891628;29;20460;-69
2023/05/02 13:19:31;;;;;;;1.42;0.80;;;;;;;21.10;44.00;102408.13;19881714;29;20479;-67
2023/05/02 13:29:33;;;;;;;1.42;0.60;;;;;;;21.12;43.87;102416.09;19869186;29;20066;-69
2023/05/02 13:39:35;;;;;;;0.70;0.50;;;;;;;21.10;44.06;102418.06;19879581;29;20054;-70
2023/05/02 13:49:37;;;;;;;0.90;0.60;;;;;;;21.09;44.03;102428.06;19883119;29;20116;-68
2023/05/02 13:59:39;;;;;;;3.33;0.98;;;;;;;21.08;43.87;102434.47;19901587;29;20560;-68
2023/05/02 14:09:41;;;;;;;1.05;0.60;;;;;;;21.08;44.03;102431.75;19872548;29;20054;-69
2023/05/02 14:19:43;;;;;;;1.73;0.50;;;;;;;21.11;43.96;102427.91;19883425;29;20050;-66
2023/05/02 14:29:47;;;;;;;1.77;0.60;;;;;;;21.10;43.90;102429.78;19883613;29;20139;-66
2023/05/02 14:39:51;;;;;;;0.45;0.43;;;;;;;21.10;44.02;102428.91;19872661;29;20134;-66
2023/05/02 14:49:55;;;;;;;1.98;0.60;;;;;;;21.11;44.09;102430.63;19894461;29;20535;-66
2023/05/02 14:59:57;;;;;;;0.82;0.50;;;;;;;21.07;43.97;102435.44;19886077;29;20058;-66
2023/05/02 15:09:59;;;;;;;1.15;0.30;;;;;;;21.11;43.94;102436.03;19871755;29;20470;-67
2023/05/02 15:20:03;;;;;;;0.57;0.43;;;;;;;21.12;43.73;102443.19;19881428;29;20050;-69
2023/05/02 15:30:06;;;;;;;1.20;0.50;;;;;;;21.10;43.69;102447.88;19871110;29;20055;-68
2023/05/02 15:40:08;;;;;;;1.20;0.40;;;;;;;21.08;43.64;102463.38;19881420;29;20400;-68
2023/05/02 15:50:10;;;;;;;0.98;0.45;;;;;;;21.05;43.44;102466.31;19851827;29;20086;-65
2023/05/02 16:00:15;;;;;;;0.43;0.30;;;;;;;21.07;43.61;102469.75;19865049;29;20050;-64
2023/05/02 16:10:17;;;;;;;0.32;0.32;;;;;;;21.07;43.70;102469.75;19876400;29;20135;-66
2023/05/02 16:20:19;;;;;;;0.43;0.30;;;;;;;21.10;43.99;102466.81;19857229;29;20133;-67
2023/05/02 16:30:21;;;;;;;2.15;1.10;;;;;;;21.12;44.67;102471.16;19854450;29;20173;-65
2023/05/02 16:40:22;;;;;;;4.03;1.52;;;;;;;21.19;45.75;102481.50;19849653;29;20055;-65
2023/05/02 16:50:26;;;;;;;3.37;1.80;;;;;;;21.20;46.98;102484.06;19844258;29;20574;-65
2023/05/02 17:00:28;;;;;;;2.83;1.25;;;;;;;21.28;48.58;102497.03;19856888;29;20500;-66
2023/05/02 17:10:30;;;;;;;2.45;1.45;;;;;;;21.31;48.54;102504.91;19827490;29;20064;-66
2023/05/02 17:20:32;;;;;;;1.38;0.85;;;;;;;21.27;48.07;102512.44;19858078;29;20138;-65
2023/05/02 17:30:34;;;;;;;1.67;1.00;;;;;;;21.24;48.04;102507.25;19832843;29;20133;-66
2023/05/02 17:40:36;;;;;;;1.75;0.88;;;;;;;21.23;48.65;102510.94;19848298;29;20063;-66
2023/05/02 17:50:39;;;;;;;2.25;1.10;;;;;;;21.23;49.22;102534.44;19860557;29;20069;-67
2023/05/02 18:00:41;;;;;;;2.67;1.25;;;;;;;21.25;48.97;102532.47;19868313;29;20462;-66
2023/05/02 18:10:43;;;;;;;1.80;0.90;;;;;;;21.30;48.34;102547.41;19871238;29;21512;-65
2023/05/02 18:20:44;;;;;;;2.30;0.80;;;;;;;21.19;47.56;102543.78;19886424;29;20062;-64
2023/05/02 18:30:46;;;;;;;2.55;0.65;;;;;;;21.06;47.16;102558.28;19884584;29;20050;-64
2023/05/02 18:40:48;;;;;;;2.00;0.75;;;;;;;20.95;45.96;102553.66;19853940;29;20067;-64
2023/05/02 18:50:55;;;;;;;1.17;0.63;;;;;;;20.88;45.47;102554.25;19877401;29;20167;-64
2023/05/02 19:00:57;;;;;;;2.83;0.68;;;;;;;20.80;45.17;102555.69;19893637;29;20110;-64
2023/05/02 19:10:58;;;;;;;0.93;0.50;;;;;;;20.73;44.86;102546.28;19892450;29;20051;-64
2023/05/02 19:21:11;;;;;;;1.77;0.70;;;;;;;20.69;44.88;102552.91;19891970;29;20590;-65
2023/05/02 19:31:18;;;;;;;2.05;1.00;;;;;;;20.65;44.67;102576.59;19914173;29;20054;-64
2023/05/02 19:41:21;;;;;;;1.20;0.88;;;;;;;20.62;44.47;102581.41;19889484;29;20108;-64
2023/05/02 19:51:24;;;;;;;1.98;0.80;;;;;;;20.62;44.21;102586.81;19878650;29;20086;-64
2023/05/02 20:01:28;;;;;;;1.30;0.80;;;;;;;20.62;43.90;102592.22;19898772;29;20058;-64
2023/05/02 20:11:31;;;;;;;1.10;0.70;;;;;;;20.62;44.10;102595.78;19868100;29;20055;-64
2023/05/02 20:21:33;;;;;;;0.68;0.40;;;;;;;;;;19882720;29;20108;-64
2023/05/02 20:31:35;;;;;;;1.25;0.40;;;;;;;20.62;43.85;102603.88;19883368;29;20484;-64
2023/05/02 20:41:36;;;;;;;1.75;0.80;;;;;;;20.64;45.60;102617.31;19882351;29;20058;-64
2023/05/02 20:51:38;;;;;;;2.22;0.80;;;;;;;20.65;46.27;102628.03;19883714;29;20055;-64
2023/05/02 21:01:40;;;;;;;1.13;0.60;;;;;;;20.65;46.47;102630.72;19882279;29;20075;-64
2023/05/02 21:11:42;;;;;;;0.70;0.60;;;;;;;20.64;46.57;102634.41;19882645;29;20090;-64
2023/05/02 21:21:44;;;;;;;1.55;0.68;;;;;;;20.62;46.31;102630.94;19859597;29;20059;-64
2023/05/02 21:31:46;;;;;;;1.73;0.80;;;;;;;20.57;46.01;102639.44;19882433;29;20150;-64
2023/05/02 21:41:48;;;;;;;0.80;0.50;;;;;;;20.53;45.54;102631.63;19882551;29;20062;-64
2023/05/02 21:51:49;;;;;;;0.93;0.50;;;;;;;20.48;44.85;102628.41;19866052;29;20089;-64
2023/05/02 22:01:51;;;;;;;0.98;0.45;;;;;;;20.43;44.73;102621.47;19879923;29;20146;-64
2023/05/02 22:11:53;;;;;;;1.40;0.50;;;;;;;20.40;44.30;102626.25;19894667;29;20512;-64
2023/05/02 22:21:55;;;;;;;1.00;0.50;;;;;;;20.37;44.14;102621.06;19886784;29;20534;-64
2023/05/02 22:31:58;;;;;;;0.88;0.50;;;;;;;20.34;43.66;102611.34;19891550;29;20086;-64
2023/05/02 22:42:00;;;;;;;1.25;0.50;;;;;;;20.34;43.56;102615.88;19904009;29;20523;-64
2023/05/02 22:52:02;;;;;;;0.82;0.45;;;;;;;20.28;43.49;102617.16;19889567;29;20123;-64
2023/05/02 23:02:04;;;;;;;0.85;0.40;;;;;;;20.26;43.12;102622.69;19889048;29;20055;-64
2023/05/02 23:12:06;;;;;;;0.75;0.50;;;;;;;20.23;43.05;102625.63;19889142;29;20059;-64
2023/05/02 23:22:08;;;;;;;0.70;0.40;;;;;;;20.21;42.54;102626.69;19889680;29;20054;-64
2023/05/02 23:32:10;;;;;;;0.80;0.35;;;;;;;20.18;42.45;102616.97;19887626;29;20051;-64
2023/05/02 23:42:11;;;;;;;0.60;0.32;;;;;;;20.14;42.40;102637.94;19889280;29;20055;-64
2023/05/02 23:52:13;;;;;;;1.00;0.70;;;;;;;20.11;42.18;102632.75;19886504;29;20061;-64
